Main page
METAR-TAF:

METAR-TAF

Airports :

Guaymas International Airport

Guaymas, Mexico

latitude: 27-58N, longitude: 110-56W, elevation: 27 m

Current weather observation

The report was made 48 minutes ago, at 15:43 UTC
Calm wind
Temperature 29°C
Humidity 74%
Pressure 1012 hPa
Visibility: 12.9 km
Few clouds at a height of 1500 ft

METAR: MMGM 281543Z 00000KT 8SM FEW015 29/24 A2988 RMK 8/800

Time: 09:31 (16:31 UTC)

Forecast

The report was made 11 hours and 58 minutes ago, at 04:33 UTC
Forecast valid from 28 at 06 UTC to 29 at 06 UTC
Wind 5 kt from the Southwest
Visibility: 10 km
Clear sky
From 28 at 1800 UTC
Wind 15 kt from the Southwest
Visibility: 10 km
Clear sky
From 29 at 0400 UTC
Wind 5 kt from the West/Southwest
Visibility: 9.7 km
Clear sky
haze

TAF: MMGM 280433Z 2806/2906 22005KT P6SM SKC FM281800 22015KT P6SM SKC FM290400 24005KT 6SM HZ SKC

Weather observations and forecasts of more than 4000 airports (METAR and TAF reports).

The available stations are represented by yellow and red dots on the map.

Hover mouse over dot to see the name of the station.

Then click to see weather observations and forecasts.

To change the map : click on the green buttons with a black cross to zoom in, on the green button with a dash to zoom out, or on the green arrows for adjacent maps.


METAR-TAF: